67XS weather

Knapp Medical Center Heliport
Weslaco, Texas, United States

Public forecast

Using degrees Fahrenheit for public forecast. Weather courtesy of forecast.io.

Closest aviation weather report (METAR) to Knapp Medical Center Heliport

Closest report is Mid Valley Airport, 1.5 nm (2.9 km) NNE. Retrieved 2019/10/16 16:35 UTC (0 seconds ago):

KTXW 161635Z AUTO 04009KT 10SM SCT038 SCT044 OVC050 29/21 A2999 RMK AO2 T02850209

Closest aviation forecast (TAF) to Knapp Medical Center Heliport

Closest forecast is Mc Allen Miller International Airport, 14.1 nm (26.1 km) W. Retrieved 2019/10/16 12:48 UTC (3 hours ago):

TAF KMFE 161139Z 1612/1712 03007KT P6SM FEW025 FM161500 01008KT P6SM VCSH BKN030 FM162000 02014G20KT P6SM VCTS BKN035CB FM170200 35012G16KT P6SM BKN030 FM170900 34012KT P6SM OVC040